createdAt,value
2022-10-31T00:01:29.686Z,14.86
2022-10-31T00:03:57.599Z,14.85
2022-10-31T00:06:26.043Z,14.82
2022-10-31T00:08:55.657Z,14.80
2022-10-31T00:11:24.005Z,14.75
2022-10-31T00:13:51.849Z,14.73
2022-10-31T00:16:23.041Z,14.71
2022-10-31T00:18:51.382Z,14.71
2022-10-31T00:21:19.411Z,14.61
2022-10-31T00:23:47.403Z,14.59
2022-10-31T00:26:15.790Z,14.55
2022-10-31T00:28:43.667Z,14.48
2022-10-31T00:31:13.824Z,14.42
2022-10-31T00:33:43.643Z,14.42
2022-10-31T00:36:14.272Z,14.45
2022-10-31T00:38:42.384Z,14.41
2022-10-31T00:41:10.945Z,14.35
2022-10-31T00:43:42.410Z,14.34
2022-10-31T00:46:10.404Z,14.35
2022-10-31T00:48:38.198Z,14.32
2022-10-31T00:51:07.539Z,14.38
2022-10-31T00:53:35.398Z,14.35
2022-10-31T00:56:03.420Z,14.41
2022-10-31T00:58:31.236Z,14.29
2022-10-31T01:00:59.026Z,14.24
2022-10-31T01:03:28.825Z,14.26
2022-10-31T01:06:01.900Z,14.26
2022-10-31T01:08:31.428Z,14.24
2022-10-31T01:11:13.626Z,14.18
2022-10-31T01:13:42.204Z,14.03
2022-10-31T01:16:12.729Z,13.88
2022-10-31T01:18:40.842Z,13.71
2022-10-31T01:21:10.264Z,13.69
2022-10-31T01:23:39.807Z,13.69
2022-10-31T01:26:10.516Z,13.66
2022-10-31T01:28:39.695Z,13.66
2022-10-31T01:31:09.686Z,13.69
2022-10-31T01:33:38.091Z,13.63
2022-10-31T01:36:14.376Z,13.52
2022-10-31T01:38:43.561Z,13.40
2022-10-31T01:41:12.609Z,13.36
2022-10-31T01:43:48.933Z,13.50
2022-10-31T01:46:19.721Z,13.49
2022-10-31T01:48:48.395Z,13.62
2022-10-31T01:51:19.600Z,13.64
2022-10-31T01:53:49.047Z,13.74
2022-10-31T01:56:18.482Z,13.76
2022-10-31T01:58:48.167Z,13.86
2022-10-31T02:01:18.783Z,14.00
2022-10-31T02:03:48.678Z,14.04
2022-10-31T02:06:24.960Z,14.07
2022-10-31T02:08:55.556Z,14.08
2022-10-31T02:11:23.390Z,14.10
2022-10-31T02:13:51.319Z,14.18
2022-10-31T02:16:19.805Z,14.20
2022-10-31T02:18:47.744Z,14.22
2022-10-31T02:21:20.148Z,14.18
2022-10-31T02:24:17.290Z,14.20
2022-10-31T02:27:09.545Z,14.17
2022-10-31T02:30:05.063Z,14.20
2022-10-31T02:32:47.142Z,14.15
2022-10-31T02:35:22.680Z,14.13
2022-10-31T02:37:58.102Z,14.07
2022-10-31T02:40:29.510Z,14.04
2022-10-31T02:43:29.380Z,13.94
2022-10-31T02:46:00.830Z,13.84
2022-10-31T02:48:36.370Z,13.80
2022-10-31T02:51:06.247Z,13.70
2022-10-31T02:53:35.011Z,13.57
2022-10-31T02:56:07.946Z,13.39
2022-10-31T02:58:39.904Z,13.27
2022-10-31T03:01:27.197Z,13.22
2022-10-31T03:04:09.505Z,13.11
2022-10-31T03:06:43.238Z,13.04
2022-10-31T03:09:16.807Z,12.89
2022-10-31T03:11:50.474Z,12.89
2022-10-31T03:14:25.015Z,12.88
2022-10-31T03:17:05.497Z,12.91
2022-10-31T03:19:38.099Z,13.08
2022-10-31T03:22:11.823Z,13.16
2022-10-31T03:24:41.230Z,13.27
2022-10-31T03:27:12.032Z,13.27
2022-10-31T03:29:42.182Z,13.29
2022-10-31T03:32:12.803Z,13.16
2022-10-31T03:34:44.665Z,13.05
2022-10-31T03:37:15.489Z,12.98
2022-10-31T03:39:45.678Z,12.92
2022-10-31T03:42:16.833Z,12.99
2022-10-31T03:44:47.837Z,13.11
2022-10-31T03:47:16.456Z,13.18
2022-10-31T03:49:45.942Z,13.23
2022-10-31T03:52:24.521Z,13.18
2022-10-31T03:54:57.883Z,13.08
2022-10-31T03:57:29.767Z,12.96
2022-10-31T04:00:03.731Z,12.88
2022-10-31T04:02:37.320Z,12.78
2022-10-31T04:05:07.781Z,12.69
2022-10-31T04:07:38.953Z,12.67
2022-10-31T04:10:13.487Z,12.72
2022-10-31T04:12:48.222Z,12.80
2022-10-31T04:15:27.440Z,12.67
2022-10-31T04:17:59.298Z,12.63
2022-10-31T04:20:34.646Z,12.63
2022-10-31T04:23:02.812Z,12.64
2022-10-31T04:25:30.762Z,12.51
2022-10-31T04:28:00.756Z,12.57
2022-10-31T04:30:28.738Z,12.53
2022-10-31T04:32:56.642Z,12.44
2022-10-31T04:35:24.484Z,12.34
2022-10-31T04:37:55.331Z,12.23
2022-10-31T04:40:23.098Z,12.14
2022-10-31T04:42:56.957Z,12.02
2022-10-31T04:45:24.926Z,11.93
2022-10-31T04:47:54.298Z,11.93
2022-10-31T04:50:22.173Z,11.90
2022-10-31T04:52:49.905Z,11.78
2022-10-31T04:55:23.365Z,11.83
2022-10-31T04:58:09.719Z,11.75
2022-10-31T05:00:38.275Z,11.76
2022-10-31T05:03:06.309Z,11.75
2022-10-31T05:05:34.385Z,11.69
2022-10-31T05:08:05.275Z,11.62
2022-10-31T05:10:35.177Z,11.55
2022-10-31T05:13:06.080Z,11.52
2022-10-31T05:15:52.470Z,11.54
2022-10-31T05:18:38.755Z,11.54
2022-10-31T05:21:25.052Z,11.51
2022-10-31T05:23:55.534Z,11.52
2022-10-31T05:26:26.869Z,11.54
2022-10-31T05:28:55.934Z,11.52
2022-10-31T05:31:24.608Z,11.69
2022-10-31T05:33:54.230Z,11.68
2022-10-31T05:36:21.990Z,11.71
2022-10-31T05:38:54.065Z,11.75
2022-10-31T05:41:37.445Z,11.78
2022-10-31T05:44:09.997Z,11.82
2022-10-31T05:46:51.107Z,11.93
2022-10-31T05:49:44.461Z,12.06
2022-10-31T05:52:30.700Z,12.23
2022-10-31T05:55:06.778Z,12.38
2022-10-31T05:57:35.994Z,12.43
2022-10-31T06:00:06.783Z,12.50
2022-10-31T06:02:48.906Z,12.48
2022-10-31T06:05:25.052Z,12.51
2022-10-31T06:07:54.044Z,12.48
2022-10-31T06:10:22.307Z,12.50
2022-10-31T06:12:55.453Z,12.51
2022-10-31T06:15:31.190Z,12.48
2022-10-31T06:18:05.072Z,12.45
2022-10-31T06:20:38.109Z,12.41
2022-10-31T06:23:07.342Z,12.40
2022-10-31T06:25:35.803Z,12.40
2022-10-31T06:28:07.594Z,12.45
2022-10-31T06:30:57.235Z,12.40
2022-10-31T06:33:25.337Z,12.43
2022-10-31T06:35:58.377Z,12.60
2022-10-31T06:38:27.799Z,12.65
2022-10-31T06:40:56.487Z,12.71
2022-10-31T06:43:28.781Z,12.75
2022-10-31T06:46:18.799Z,12.78
2022-10-31T06:49:01.628Z,12.81
2022-10-31T06:51:44.127Z,12.82
2022-10-31T06:54:11.891Z,12.80
2022-10-31T06:56:39.692Z,12.85
2022-10-31T06:59:08.916Z,12.87
2022-10-31T07:01:57.076Z,12.85
2022-10-31T07:04:25.381Z,12.87
2022-10-31T07:06:53.954Z,13.11
2022-10-31T07:09:22.215Z,13.54
2022-10-31T07:11:50.293Z,13.53
2022-10-31T07:14:19.564Z,13.67
2022-10-31T07:16:50.119Z,13.74
2022-10-31T07:19:20.898Z,14.01
2022-10-31T07:21:48.696Z,14.14
2022-10-31T07:24:17.180Z,14.17
2022-10-31T07:26:46.899Z,14.34
2022-10-31T07:29:15.617Z,14.42
2022-10-31T07:31:45.071Z,14.48
2022-10-31T07:34:19.395Z,14.48
2022-10-31T07:36:56.028Z,14.71
2022-10-31T07:39:23.782Z,14.71
2022-10-31T07:41:51.509Z,14.72
2022-10-31T07:44:20.913Z,14.76
2022-10-31T07:46:55.882Z,14.82
2022-10-31T07:49:42.424Z,14.80
2022-10-31T07:52:28.604Z,14.96
2022-10-31T07:55:16.242Z,15.06
2022-10-31T07:57:48.126Z,14.96
2022-10-31T08:00:16.342Z,15.04
2022-10-31T08:02:45.435Z,14.90
2022-10-31T08:05:46.843Z,14.95
2022-10-31T08:08:32.301Z,15.16
2022-10-31T08:11:03.764Z,14.95
2022-10-31T08:13:31.838Z,14.99
2022-10-31T08:16:04.540Z,14.95
2022-10-31T08:18:38.428Z,15.08
2022-10-31T08:21:08.589Z,14.99
2022-10-31T08:23:36.860Z,15.03
2022-10-31T08:26:06.981Z,15.27
2022-10-31T08:28:34.923Z,15.34
2022-10-31T08:31:04.031Z,15.47
2022-10-31T08:33:42.139Z,15.54
2022-10-31T08:36:39.007Z,15.84
2022-10-31T08:39:38.876Z,16.18
2022-10-31T08:42:06.846Z,16.59
2022-10-31T08:44:34.677Z,17.17
2022-10-31T08:47:02.499Z,17.59
2022-10-31T08:49:34.970Z,17.99
2022-10-31T08:52:04.283Z,18.06
2022-10-31T08:54:36.812Z,18.48
2022-10-31T08:57:36.643Z,18.57
2022-10-31T09:00:06.273Z,18.61
2022-10-31T09:02:59.687Z,18.76
2022-10-31T09:05:31.650Z,18.57
2022-10-31T09:08:00.832Z,18.58
2022-10-31T09:10:30.522Z,18.68
2022-10-31T09:12:58.489Z,18.72
2022-10-31T09:15:29.852Z,18.75
2022-10-31T09:18:12.169Z,18.62
2022-10-31T09:21:02.383Z,18.11
2022-10-31T09:23:32.265Z,18.33
2022-10-31T09:26:03.142Z,18.17
2022-10-31T09:28:38.033Z,18.17
2022-10-31T09:31:15.730Z,18.33
2022-10-31T09:34:06.787Z,18.62
2022-10-31T09:36:39.163Z,19.11
2022-10-31T09:39:16.096Z,19.27
2022-10-31T09:42:11.695Z,19.02
2022-10-31T09:44:50.227Z,19.11
2022-10-31T09:47:36.147Z,19.06
2022-10-31T09:50:40.969Z,19.43
2022-10-31T09:53:39.881Z,19.13
2022-10-31T09:56:11.830Z,19.12
2022-10-31T09:58:44.627Z,18.82
2022-10-31T10:01:36.226Z,19.18
2022-10-31T10:04:18.296Z,19.29
2022-10-31T10:06:59.460Z,19.22
2022-10-31T10:09:58.435Z,19.29
2022-10-31T10:13:08.265Z,19.22
2022-10-31T10:16:00.292Z,19.23
2022-10-31T10:18:40.521Z,19.56
2022-10-31T10:21:18.790Z,19.67
2022-10-31T10:23:57.404Z,19.83
2022-10-31T10:29:19.786Z,19.42
2022-10-31T10:31:50.954Z,19.40
2022-10-31T10:34:22.927Z,19.24
2022-10-31T10:36:55.582Z,19.27
2022-10-31T10:39:27.588Z,19.34
2022-10-31T10:42:16.759Z,19.06
2022-10-31T10:45:05.691Z,19.37
2022-10-31T10:47:41.363Z,19.40
2022-10-31T10:50:16.737Z,19.60
2022-10-31T10:52:53.943Z,19.60
2022-10-31T10:55:33.781Z,19.57
2022-10-31T10:58:05.556Z,19.57
2022-10-31T11:00:36.807Z,19.56
2022-10-31T11:03:05.954Z,19.74
2022-10-31T11:05:38.281Z,19.95
2022-10-31T11:08:07.404Z,20.28
2022-10-31T11:10:35.225Z,20.48
2022-10-31T11:13:08.747Z,20.62
2022-10-31T11:15:39.922Z,20.89
2022-10-31T11:18:07.811Z,21.16
2022-10-31T11:20:38.360Z,21.57
2022-10-31T11:23:18.282Z,21.34
2022-10-31T11:25:54.794Z,20.90
2022-10-31T11:28:24.230Z,20.53
2022-10-31T11:30:55.400Z,20.69
2022-10-31T11:33:31.130Z,20.57
2022-10-31T11:35:59.630Z,20.75
2022-10-31T11:38:35.040Z,20.86
2022-10-31T11:41:11.414Z,21.03
2022-10-31T11:43:41.769Z,21.20
2022-10-31T11:46:14.320Z,21.30
2022-10-31T11:48:47.726Z,21.78
2022-10-31T11:51:23.037Z,22.08
2022-10-31T11:53:56.915Z,21.59
2022-10-31T11:56:28.436Z,21.95
2022-10-31T11:59:03.569Z,22.71
2022-10-31T12:01:33.892Z,21.95
2022-10-31T12:04:08.721Z,21.50
2022-10-31T12:06:38.677Z,21.67
2022-10-31T12:09:19.456Z,21.68
2022-10-31T12:11:59.464Z,21.81
2022-10-31T12:14:38.666Z,21.51
2022-10-31T12:17:15.532Z,21.31
2022-10-31T12:19:55.423Z,21.30
2022-10-31T12:22:30.897Z,20.85
2022-10-31T12:25:30.344Z,20.68
2022-10-31T12:28:13.699Z,20.69
2022-10-31T12:30:56.900Z,20.59
2022-10-31T12:33:49.042Z,20.48
2022-10-31T12:36:28.771Z,20.32
2022-10-31T12:39:28.957Z,20.39
2022-10-31T12:42:04.042Z,20.57
2022-10-31T12:44:53.838Z,20.57
2022-10-31T12:47:46.805Z,20.55
2022-10-31T12:50:29.252Z,20.85
2022-10-31T12:53:07.559Z,21.23
2022-10-31T12:55:45.305Z,21.28
2022-10-31T12:58:19.399Z,21.22
2022-10-31T13:00:50.874Z,21.38
2022-10-31T13:03:28.530Z,21.41
2022-10-31T13:06:00.109Z,21.35
2022-10-31T13:08:32.364Z,21.37
2022-10-31T13:11:08.581Z,21.16
2022-10-31T13:13:42.390Z,21.16
2022-10-31T13:16:17.251Z,21.51
2022-10-31T13:18:50.295Z,21.81
2022-10-31T13:21:23.021Z,21.67
2022-10-31T13:23:52.753Z,21.64
2022-10-31T13:26:25.950Z,21.35
2022-10-31T13:29:01.850Z,21.06
2022-10-31T13:31:30.018Z,20.73
2022-10-31T13:34:03.233Z,20.55
2022-10-31T13:36:39.582Z,20.32
2022-10-31T13:39:22.645Z,20.04
2022-10-31T13:41:55.535Z,19.91
2022-10-31T13:44:26.223Z,19.81
2022-10-31T13:46:55.436Z,19.75
2022-10-31T13:49:40.146Z,19.37
2022-10-31T13:52:15.827Z,19.22
2022-10-31T13:54:45.615Z,19.11
2022-10-31T13:57:24.160Z,19.02
2022-10-31T13:59:55.769Z,18.89
2022-10-31T14:02:28.789Z,18.72
2022-10-31T14:05:01.043Z,18.75
2022-10-31T14:07:30.282Z,18.67
2022-10-31T14:10:03.069Z,18.72
2022-10-31T14:12:33.786Z,18.69
2022-10-31T14:15:05.985Z,18.57
2022-10-31T14:17:41.741Z,18.50
2022-10-31T14:20:28.042Z,18.44
2022-10-31T14:22:55.857Z,18.60
2022-10-31T14:25:33.222Z,18.50
2022-10-31T14:28:03.837Z,18.51
2022-10-31T14:30:32.846Z,18.52
2022-10-31T14:33:04.077Z,18.16
2022-10-31T14:35:48.296Z,18.06
2022-10-31T14:38:50.526Z,17.80
2022-10-31T14:41:36.305Z,17.87
2022-10-31T14:44:29.571Z,17.75
2022-10-31T14:47:03.632Z,17.78
2022-10-31T14:49:49.486Z,17.70
2022-10-31T14:52:20.690Z,17.65
2022-10-31T14:54:53.456Z,17.58
2022-10-31T14:57:24.391Z,17.41
2022-10-31T14:59:59.195Z,17.35
2022-10-31T15:02:37.493Z,17.34
2022-10-31T15:05:09.669Z,17.36
2022-10-31T15:07:50.074Z,17.42
2022-10-31T15:10:24.007Z,17.49
2022-10-31T15:12:52.074Z,17.59
2022-10-31T15:15:23.500Z,17.48
2022-10-31T15:17:54.947Z,17.42
2022-10-31T15:20:25.191Z,17.36
2022-10-31T15:22:56.872Z,17.36
2022-10-31T15:25:26.641Z,17.21
2022-10-31T15:27:55.008Z,17.10
2022-10-31T15:30:24.665Z,17.04
2022-10-31T15:33:00.729Z,16.88
2022-10-31T15:35:30.443Z,16.79
2022-10-31T15:38:01.586Z,16.70
2022-10-31T15:40:29.888Z,16.61
2022-10-31T15:43:01.398Z,16.56
2022-10-31T15:45:31.201Z,16.56
2022-10-31T15:48:02.115Z,16.45
2022-10-31T15:50:34.464Z,16.45
2022-10-31T15:53:05.573Z,16.29
2022-10-31T15:55:38.602Z,16.25
2022-10-31T15:58:13.739Z,16.13
2022-10-31T16:00:41.564Z,16.02
2022-10-31T16:03:27.050Z,15.91
2022-10-31T16:05:56.936Z,15.74
2022-10-31T16:08:35.794Z,15.55
2022-10-31T16:11:18.465Z,15.38
2022-10-31T16:13:56.723Z,15.27
2022-10-31T16:16:40.715Z,15.06
2022-10-31T16:19:18.474Z,14.82
2022-10-31T16:21:46.925Z,14.72
2022-10-31T16:24:20.441Z,14.61
2022-10-31T16:26:52.529Z,14.49
2022-10-31T16:29:28.785Z,14.45
2022-10-31T16:31:56.595Z,14.35
2022-10-31T16:34:26.877Z,14.31
2022-10-31T16:36:55.135Z,14.28
2022-10-31T16:39:24.396Z,14.28
2022-10-31T16:41:53.173Z,14.26
2022-10-31T16:44:24.037Z,14.28
2022-10-31T16:47:10.397Z,14.29
2022-10-31T16:49:38.164Z,14.29
2022-10-31T16:52:06.136Z,14.35
2022-10-31T16:54:35.320Z,14.44
2022-10-31T16:57:05.391Z,14.48
2022-10-31T16:59:34.236Z,14.80
2022-10-31T17:02:03.399Z,15.26
2022-10-31T17:04:31.340Z,16.04
2022-10-31T17:06:59.093Z,16.29
2022-10-31T17:09:26.840Z,16.55
2022-10-31T17:11:56.045Z,16.66
2022-10-31T17:14:23.682Z,16.73
2022-10-31T17:16:51.620Z,16.76
2022-10-31T17:19:19.433Z,16.87
2022-10-31T17:21:47.168Z,16.87
2022-10-31T17:24:16.151Z,17.03
2022-10-31T17:26:44.186Z,17.14
2022-10-31T17:29:13.247Z,17.17
2022-10-31T17:31:40.973Z,17.15
2022-10-31T17:34:09.318Z,17.14
2022-10-31T17:36:37.633Z,17.24
2022-10-31T17:39:07.565Z,17.08
2022-10-31T17:41:35.385Z,17.19
2022-10-31T17:44:03.233Z,17.17
2022-10-31T17:46:32.330Z,17.22
2022-10-31T17:49:01.356Z,17.27
2022-10-31T17:51:29.088Z,17.36
2022-10-31T17:53:56.869Z,17.35
2022-10-31T17:56:24.642Z,17.29
2022-10-31T17:58:52.571Z,17.35
2022-10-31T18:01:20.758Z,17.45
2022-10-31T18:03:49.933Z,17.38
2022-10-31T18:06:17.495Z,17.31
2022-10-31T18:08:45.983Z,17.28
2022-10-31T18:11:16.997Z,17.24
2022-10-31T18:13:44.829Z,17.41
2022-10-31T18:16:14.602Z,17.43
2022-10-31T18:18:42.518Z,17.43
2022-10-31T18:21:11.734Z,17.45
2022-10-31T18:23:39.329Z,17.36
2022-10-31T18:26:07.156Z,17.42
2022-10-31T18:28:34.901Z,17.45
2022-10-31T18:31:02.711Z,17.49
2022-10-31T18:33:30.720Z,17.45
2022-10-31T18:35:58.488Z,17.39
2022-10-31T18:38:28.006Z,17.35
2022-10-31T18:40:55.764Z,17.48
2022-10-31T18:43:23.556Z,17.46
2022-10-31T18:45:56.684Z,17.41
2022-10-31T18:48:28.279Z,17.39
2022-10-31T18:50:57.925Z,17.48
2022-10-31T18:53:27.138Z,17.53
2022-10-31T18:55:54.807Z,17.42
2022-10-31T18:58:22.649Z,17.42
2022-10-31T19:00:50.443Z,17.43
2022-10-31T19:03:23.316Z,17.46
2022-10-31T19:05:55.646Z,17.49
2022-10-31T19:08:23.598Z,17.55
2022-10-31T19:10:52.835Z,17.59
2022-10-31T19:13:20.526Z,17.56
2022-10-31T19:15:48.684Z,17.61
2022-10-31T19:18:16.475Z,17.56
2022-10-31T19:20:44.222Z,17.52
2022-10-31T19:23:12.029Z,17.56
2022-10-31T19:25:39.830Z,17.58
2022-10-31T19:28:09.131Z,17.65
2022-10-31T19:30:36.935Z,17.62
2022-10-31T19:33:04.759Z,17.56
2022-10-31T19:35:32.518Z,17.52
2022-10-31T19:38:00.674Z,17.52
2022-10-31T19:40:28.650Z,17.68
2022-10-31T19:42:56.420Z,17.69
2022-10-31T19:45:25.587Z,17.65
2022-10-31T19:47:53.190Z,17.68
2022-10-31T19:50:20.976Z,17.69
2022-10-31T19:52:48.987Z,17.63
2022-10-31T19:55:17.077Z,17.62
2022-10-31T19:58:02.114Z,17.63
2022-10-31T20:00:31.563Z,17.59
2022-10-31T20:03:00.624Z,17.61
2022-10-31T20:05:28.669Z,17.61
2022-10-31T20:07:57.083Z,17.66
2022-10-31T20:10:25.196Z,17.70
2022-10-31T20:12:53.005Z,17.80
2022-10-31T20:15:20.787Z,17.78
2022-10-31T20:17:49.861Z,17.73
2022-10-31T20:20:17.657Z,17.70
2022-10-31T20:22:47.217Z,17.69
2022-10-31T20:25:15.009Z,17.72
2022-10-31T20:27:43.020Z,17.70
2022-10-31T20:30:11.717Z,17.66
2022-10-31T20:32:39.473Z,17.68
2022-10-31T20:35:09.557Z,17.80
2022-10-31T20:37:37.903Z,17.75
2022-10-31T20:40:06.491Z,17.75
2022-10-31T20:42:34.324Z,17.69
2022-10-31T20:45:02.289Z,17.69
2022-10-31T20:47:30.069Z,17.68
2022-10-31T20:49:57.820Z,17.70
2022-10-31T20:52:26.914Z,17.73
2022-10-31T20:54:54.674Z,17.79
2022-10-31T20:57:22.630Z,17.75
2022-10-31T20:59:50.373Z,17.69
2022-10-31T21:02:18.292Z,17.69
2022-10-31T21:04:46.173Z,17.72
2022-10-31T21:07:13.973Z,17.75
2022-10-31T21:09:43.061Z,17.80
2022-10-31T21:12:10.838Z,17.83
2022-10-31T21:14:38.589Z,17.87
2022-10-31T21:17:06.829Z,17.90
2022-10-31T21:19:36.032Z,17.96
2022-10-31T21:22:03.674Z,17.96
2022-10-31T21:24:31.493Z,17.94
2022-10-31T21:27:02.708Z,17.96
2022-10-31T21:29:31.186Z,17.93
2022-10-31T21:31:58.921Z,17.93
2022-10-31T21:34:26.700Z,17.96
2022-10-31T21:36:54.496Z,17.93
2022-10-31T21:39:22.363Z,17.89
2022-10-31T21:41:50.125Z,17.94
2022-10-31T21:44:19.287Z,17.97
2022-10-31T21:46:48.064Z,17.96
2022-10-31T21:49:15.952Z,18.00
2022-10-31T21:51:44.120Z,18.03
2022-10-31T21:54:28.650Z,18.04
2022-10-31T21:56:56.738Z,18.03
2022-10-31T21:59:26.042Z,18.06
2022-10-31T22:01:55.972Z,18.09
2022-10-31T22:04:23.799Z,18.07
2022-10-31T22:06:51.609Z,18.09
2022-10-31T22:09:20.113Z,18.11
2022-10-31T22:11:48.061Z,18.10
2022-10-31T22:14:16.180Z,18.13
2022-10-31T22:16:45.734Z,18.11
2022-10-31T22:19:15.423Z,18.13
2022-10-31T22:21:44.939Z,18.21
2022-10-31T22:24:13.190Z,18.26
2022-10-31T22:26:41.279Z,18.31
2022-10-31T22:29:11.991Z,18.34
2022-10-31T22:31:42.309Z,18.33
2022-10-31T22:34:12.078Z,18.41
2022-10-31T22:36:40.443Z,18.40
2022-10-31T22:39:08.860Z,18.44
2022-10-31T22:41:37.577Z,18.36
2022-10-31T22:44:06.475Z,18.33
2022-10-31T22:46:36.224Z,18.29
2022-10-31T22:49:07.006Z,18.23
2022-10-31T22:51:37.748Z,18.24
2022-10-31T22:54:06.533Z,18.27
2022-10-31T22:56:35.872Z,18.24
2022-10-31T22:59:03.921Z,18.18
2022-10-31T23:01:33.564Z,18.16
2022-10-31T23:04:01.968Z,18.10
2022-10-31T23:06:31.586Z,18.07
2022-10-31T23:09:03.127Z,17.96
2022-10-31T23:11:33.268Z,17.97
2022-10-31T23:14:10.839Z,18.00
2022-10-31T23:16:44.756Z,17.90
2022-10-31T23:19:14.621Z,17.89
2022-10-31T23:21:57.287Z,17.93
2022-10-31T23:24:29.316Z,17.92
2022-10-31T23:27:09.599Z,17.87
2022-10-31T23:29:40.307Z,17.90
2022-10-31T23:32:10.728Z,17.83
2022-10-31T23:34:38.515Z,17.73
2022-10-31T23:39:40.373Z,17.82
2022-10-31T23:42:07.989Z,17.85
2022-10-31T23:44:35.862Z,17.83
2022-10-31T23:47:04.785Z,17.82
2022-10-31T23:49:32.725Z,17.79
2022-10-31T23:52:00.572Z,17.82
2022-10-31T23:54:28.879Z,17.80
2022-10-31T23:56:59.037Z,17.82
2022-10-31T23:59:28.936Z,17.83
